Weather at Gila Bend Municipal Airport

Public forecast

Using degrees Fahrenheit for public forecast. Weather courtesy of forecast.io.

Closest aviation weather report (METAR) to Gila Bend Municipal Airport

Closest report is Gila Bend Af Aux Airport, 4.7 nm (8.8 km) SSW. Retrieved 2021/10/17 23:58 UTC (31 minutes ago):

KGXF 172358Z AUTO 22012KT 10SM CLR 30/02 A2984 RMK AO2 SLP095 T03000023 10328 20278 57009

Closest aviation forecast (TAF) to Gila Bend Municipal Airport

Forecast is more than 12 hours old.

Closest forecast is Luke Air Force Base, 37.7 nm (69.8 km) NNE. Retrieved 2021/10/15 20:13 UTC (2 days ago):

TAF KLUF 152000Z 1520/1702 04009KT 9999 SKC QNH3000INS TEMPO 1520/1523 04012G18KT TX30/1523Z TN12/1612Z LAST NO AMDS AFT 1523 NEXT 1812